Time;durP1;ratioP1;P1;durP2;ratioP2;P2;SDS_P1;SDS_P2;PMS_P1;PMS_P2;Temp;Humidity;BMP_temperature;BMP_pressure;BME280_temperature;BME280_humidity;BME280_pressure;Samples;Min_cycle;Max_cycle;Signal;HPM_P1;HPM_P2
2022/06/01 00:00:50;;;;;;;3.03;2.73;;;12.10;99.90;;;;;;5071922;28;20178;-66
2022/06/01 00:03:15;;;;;;;2.90;2.70;;;12.10;99.90;;;;;;5076923;28;20253;-75
2022/06/01 00:05:42;;;;;;;3.90;3.13;;;12.10;99.90;;;;;;5076223;28;20170;-72
2022/06/01 00:08:08;;;;;;;2.90;2.70;;;12.10;99.90;;;;;;5075583;28;20524;-66
2022/06/01 00:10:35;;;;;;;2.97;2.77;;;12.20;99.90;;;;;;5076542;28;20933;-75
2022/06/01 00:13:00;;;;;;;3.20;3.00;;;12.20;99.90;;;;;;5074552;28;20946;-75
2022/06/01 00:15:26;;;;;;;3.90;3.03;;;12.20;99.90;;;;;;5076435;28;20408;-76
2022/06/01 00:17:52;;;;;;;6.00;3.73;;;12.20;99.90;;;;;;5075319;28;20165;-67
2022/06/01 00:20:18;;;;;;;2.80;2.60;;;12.20;99.90;;;;;;5076140;28;20439;-66
2022/06/01 00:22:44;;;;;;;2.53;2.27;;;12.20;99.90;;;;;;5074450;28;20182;-66
2022/06/01 00:25:13;;;;;;;2.97;2.67;;;12.20;99.90;;;;;;5074467;28;20432;-75
2022/06/01 00:27:38;;;;;;;2.60;2.40;;;12.20;99.90;;;;;;5074029;28;20416;-76
2022/06/01 00:30:08;;;;;;;3.03;1.97;;;12.10;99.90;;;;;;5075906;28;20386;-67
2022/06/01 00:32:34;;;;;;;2.53;2.33;;;12.10;99.90;;;;;;5074966;28;20703;-75
2022/06/01 00:35:01;;;;;;;3.67;3.07;;;12.10;99.90;;;;;;5075939;28;20415;-76
2022/06/01 00:37:27;;;;;;;3.00;2.80;;;12.10;99.90;;;;;;5075420;28;20162;-66
2022/06/01 00:39:53;;;;;;;2.57;2.37;;;12.10;99.90;;;;;;5075582;28;20452;-67
2022/06/01 00:42:29;;;;;;;3.13;2.83;;;12.10;99.90;;;;;;5072747;28;21179;-75
2022/06/01 00:44:55;;;;;;;2.50;2.33;;;12.10;99.90;;;;;;5075429;28;20173;-67
2022/06/01 00:47:23;;;;;;;3.13;2.80;;;12.20;99.90;;;;;;5075132;28;20748;-75
2022/06/01 00:49:54;;;;;;;4.63;3.27;;;12.20;99.90;;;;;;5075843;28;21008;-74
2022/06/01 00:52:35;;;;;;;3.33;3.13;;;12.10;99.90;;;;;;5073155;28;20432;-74
2022/06/01 00:55:09;;;;;;;2.40;2.23;;;12.00;99.90;;;;;;5075735;28;20491;-73
2022/06/01 00:57:34;;;;;;;5.73;3.70;;;11.90;99.90;;;;;;5073448;28;20432;-74
2022/06/01 01:00:05;;;;;;;5.50;2.90;;;11.90;1.00;;;;;;5073742;28;20439;-71
2022/06/01 01:02:31;;;;;;;2.57;2.37;;;12.00;1.00;;;;;;5072476;28;20175;-73
2022/06/01 01:04:57;;;;;;;3.20;3.00;;;12.00;1.00;;;;;;5075140;28;20423;-73
2022/06/01 01:07:26;;;;;;;3.10;2.80;;;12.00;1.00;;;;;;5074730;28;20519;-66
2022/06/01 01:09:52;;;;;;;3.57;3.27;;;12.00;1.00;;;;;;5075041;28;20751;-74
2022/06/01 01:12:18;;;;;;;3.30;3.07;;;12.10;1.00;;;;;;5073853;28;20395;-66
2022/06/01 01:14:45;;;;;;;3.53;3.33;;;12.10;1.00;;;;;;5074463;28;20470;-72
2022/06/01 01:17:12;;;;;;;3.43;3.13;;;12.10;1.00;;;;;;5074818;28;20416;-71
2022/06/01 01:19:51;;;;;;;3.20;2.90;;;12.20;1.00;;;;;;5074953;28;20438;-66
2022/06/01 01:22:36;;;;;;;3.43;3.13;;;12.20;1.00;;;;;;5073889;28;20431;-70
2022/06/01 01:25:28;;;;;;;4.20;3.00;;;12.20;1.00;;;;;;5073792;28;20424;-70
2022/06/01 01:27:56;;;;;;;2.90;2.70;;;12.20;1.00;;;;;;5074388;28;20811;-69
2022/06/01 01:30:37;;;;;;;3.80;2.93;;;12.20;1.00;;;;;;5074791;28;20408;-67
2022/06/01 01:33:16;;;;;;;3.50;3.20;;;12.20;1.00;;;;;;5073705;28;20464;-67
2022/06/01 01:35:44;;;;;;;3.40;3.10;;;12.20;1.00;;;;;;5074964;28;20404;-70
2022/06/01 01:38:32;;;;;;;5.00;2.90;;;12.20;1.00;;;;;;5071810;28;20514;-70
2022/06/01 01:41:07;;;;;;;3.43;3.13;;;12.20;1.00;;;;;;5073990;28;20391;-69
2022/06/01 01:43:35;;;;;;;3.57;3.27;;;12.10;1.00;;;;;;5057851;28;20386;-71
2022/06/01 01:46:01;;;;;;;4.23;3.07;;;12.10;1.00;;;;;;5070548;28;20449;-67
2022/06/01 01:48:27;;;;;;;3.43;3.23;;;12.10;1.00;;;;;;5073905;28;20777;-71
2022/06/01 01:50:54;;;;;;;3.40;2.73;;;12.00;1.00;;;;;;5074430;28;20401;-67
2022/06/01 01:53:20;;;;;;;3.53;3.33;;;12.00;1.00;;;;;;5073401;28;20232;-72
2022/06/01 01:56:14;;;;;;;3.27;3.07;;;12.00;1.00;;;;;;5074612;28;20409;-67
2022/06/01 01:59:11;;;;;;;2.93;2.73;;;12.00;1.00;;;;;;5070864;28;21013;-69
2022/06/01 02:01:47;;;;;;;4.87;3.37;;;12.00;1.00;;;;;;5056776;28;20427;-67
2022/06/01 02:07:31;;;;;;;4.13;3.53;;;11.90;1.00;;;;;;5073685;28;20432;-70
2022/06/01 02:12:41;;;;;;;4.60;4.30;;;11.60;1.00;;;;;;5072944;28;20576;-70
2022/06/01 02:15:10;;;;;;;6.20;3.50;;;11.60;1.00;;;;;;5072030;28;20958;-67
2022/06/01 02:17:49;;;;;;;4.27;3.67;;;11.60;1.00;;;;;;5072975;28;20257;-71
2022/06/01 02:20:29;;;;;;;3.83;3.50;;;11.60;1.00;;;;;;5072653;28;20855;-67
2022/06/01 02:22:55;;;;;;;4.77;3.80;;;11.60;1.00;;;;;;5072606;28;20438;-68
2022/06/01 02:25:21;;;;;;;3.30;3.10;;;11.60;1.00;;;;;;5072051;28;20922;-69
2022/06/01 02:27:50;;;;;;;5.53;3.77;;;11.70;1.00;;;;;;5072218;28;20452;-73
2022/06/01 02:30:20;;;;;;;3.10;2.90;;;11.60;1.00;;;;;;5088778;28;21059;-70
2022/06/01 02:32:48;;;;;;;4.07;3.77;;;11.60;1.00;;;;;;5072501;28;20403;-72
2022/06/01 02:35:17;;;;;;;4.03;3.73;;;11.60;1.00;;;;;;5073586;28;20416;-71
2022/06/01 02:37:45;;;;;;;4.77;3.23;;;11.60;1.00;;;;;;5071636;28;20427;-70
2022/06/01 02:40:15;;;;;;;3.93;3.67;;;11.60;1.00;;;;;;5073467;28;20467;-71
2022/06/01 02:42:46;;;;;;;3.43;2.80;;;11.60;1.00;;;;;;5071397;28;20436;-72
2022/06/01 02:45:13;;;;;;;3.40;3.10;;;11.60;1.00;;;;;;5073448;28;20474;-69
2022/06/01 02:47:41;;;;;;;4.30;3.90;;;11.60;1.00;;;;;;5072413;28;20406;-69
2022/06/01 02:50:10;;;;;;;3.20;2.90;;;11.60;1.00;;;;;;5073500;28;20445;-71
2022/06/01 02:52:36;;;;;;;3.70;3.07;;;11.70;1.00;;;;;;5072407;28;20395;-71
2022/06/01 02:55:05;;;;;;;3.73;3.53;;;11.60;1.00;;;;;;5073178;28;20441;-70
2022/06/01 02:57:35;;;;;;;2.83;2.63;;;11.60;1.00;;;;;;5070793;28;20409;-71
2022/06/01 03:00:04;;;;;;;3.90;3.20;;;11.70;1.00;;;;;;5073671;28;20430;-69
2022/06/01 03:02:29;;;;;;;3.63;3.37;;;11.70;1.00;;;;;;5071270;28;20918;-69
2022/06/01 03:04:55;;;;;;;3.57;3.27;;;11.70;1.00;;;;;;5073189;28;20375;-72
2022/06/01 03:07:21;;;;;;;4.87;3.60;;;11.70;1.00;;;;;;5071051;28;20178;-69
2022/06/01 03:09:46;;;;;;;3.60;3.40;;;11.70;1.00;;;;;;5073610;28;20201;-67
2022/06/01 03:12:12;;;;;;;4.23;3.70;;;11.70;1.00;;;;;;5068962;28;20534;-69
2022/06/01 03:14:38;;;;;;;4.07;3.67;;;11.70;1.00;;;;;;5073576;28;20218;-70
2022/06/01 03:17:05;;;;;;;3.63;3.30;;;11.70;1.00;;;;;;5072101;28;20356;-71
2022/06/01 03:19:31;;;;;;;3.80;3.47;;;11.70;1.00;;;;;;5071707;28;20329;-69
2022/06/01 03:21:56;;;;;;;3.67;3.37;;;11.60;1.00;;;;;;5071577;28;20495;-72
2022/06/01 03:24:22;;;;;;;4.30;4.00;;;11.50;1.00;;;;;;5073017;28;20166;-70
2022/06/01 03:26:48;;;;;;;2.83;2.73;;;11.40;1.00;;;;;;5071235;28;20170;-73
2022/06/01 03:29:14;;;;;;;4.53;3.50;;;11.40;1.00;;;;;;5072568;28;20194;-72
2022/06/01 03:31:40;;;;;;;4.57;3.50;;;11.30;1.00;;;;;;5072322;28;20527;-71
2022/06/01 03:34:06;;;;;;;3.50;3.30;;;11.20;1.00;;;;;;5071769;28;20405;-69
2022/06/01 03:36:32;;;;;;;3.50;3.30;;;11.10;4.90;;;;;;5076013;28;20401;-71
2022/06/01 03:38:58;;;;;;;3.13;2.83;;;11.20;19.90;;;;;;5075921;28;20438;-70
2022/06/01 03:41:27;;;;;;;2.93;2.73;;;11.10;19.50;;;;;;5072481;28;20273;-70
2022/06/01 03:46:38;;;;;;;3.20;3.00;;;11.10;33.20;;;;;;5076684;28;20374;-71
2022/06/01 03:49:04;;;;;;;3.37;3.17;;;11.10;50.10;;;;;;5076823;28;20513;-73
2022/06/01 03:51:29;;;;;;;3.10;2.90;;;11.00;59.40;;;;;;5077166;28;20646;-73
2022/06/01 03:53:55;;;;;;;5.83;3.33;;;11.10;72.60;;;;;;5073864;28;20182;-70
2022/06/01 03:56:25;;;;;;;3.17;2.97;;;11.10;81.20;;;;;;5076686;28;20583;-71
2022/06/01 03:58:51;;;;;;;3.10;2.90;;;11.10;81.80;;;;;;5074244;28;20627;-72
2022/06/01 04:01:18;;;;;;;4.03;3.70;;;11.10;91.40;;;;;;5076978;28;20388;-72
2022/06/01 04:03:45;;;;;;;3.33;3.13;;;11.20;92.40;;;;;;5075391;28;20831;-72
2022/06/01 04:06:10;;;;;;;3.77;3.47;;;11.20;95.00;;;;;;5075447;28;20909;-73
2022/06/01 04:08:36;;;;;;;3.80;2.80;;;11.20;94.40;;;;;;5075020;28;20422;-70
2022/06/01 04:11:02;;;;;;;3.03;2.87;;;11.10;94.00;;;;;;5076429;28;20231;-71
2022/06/01 04:13:28;;;;;;;4.67;3.20;;;11.10;97.30;;;;;;5075380;28;20178;-72
2022/06/01 04:15:54;;;;;;;3.10;2.90;;;11.10;97.30;;;;;;5076226;28;20178;-73
2022/06/01 04:18:20;;;;;;;3.83;3.53;;;11.00;97.40;;;;;;5073919;28;20841;-71
2022/06/01 04:20:48;;;;;;;3.97;3.63;;;11.00;99.40;;;;;;5076366;28;20420;-72
2022/06/01 04:23:14;;;;;;;3.83;3.53;;;11.00;99.90;;;;;;5073169;28;20399;-70
2022/06/01 04:25:39;;;;;;;3.63;3.43;;;10.90;99.90;;;;;;5076106;28;20748;-72
2022/06/01 04:28:05;;;;;;;3.70;3.40;;;11.00;99.90;;;;;;5075299;28;20193;-72
2022/06/01 04:30:31;;;;;;;5.00;4.60;;;11.00;99.90;;;;;;5075790;28;20646;-69
2022/06/01 04:32:57;;;;;;;4.47;4.17;;;10.90;99.90;;;;;;5074543;28;20439;-69
2022/06/01 04:35:25;;;;;;;4.00;3.70;;;10.80;99.90;;;;;;5071294;28;20179;-68
2022/06/01 04:37:51;;;;;;;3.83;3.53;;;10.80;99.90;;;;;;5071896;28;20391;-68
2022/06/01 04:40:18;;;;;;;5.23;4.83;;;10.70;99.90;;;;;;5075765;28;20597;-69
2022/06/01 04:42:44;;;;;;;4.70;4.30;;;10.80;99.90;;;;;;5076280;28;20518;-68
2022/06/01 04:45:12;;;;;;;5.23;4.50;;;10.90;99.90;;;;;;5074338;28;20507;-73
2022/06/01 04:47:38;;;;;;;3.73;3.43;;;11.00;99.90;;;;;;5074303;28;20392;-69
2022/06/01 04:50:05;;;;;;;4.20;3.90;;;11.10;99.90;;;;;;5075261;28;20752;-73
2022/06/01 04:52:31;;;;;;;3.80;3.60;;;11.10;99.90;;;;;;5074975;28;20410;-69
2022/06/01 04:54:57;;;;;;;4.47;4.17;;;11.10;99.90;;;;;;5074354;28;20952;-70
2022/06/01 04:57:23;;;;;;;4.27;3.90;;;11.10;99.90;;;;;;5073944;28;20395;-72
2022/06/01 04:59:48;;;;;;;3.90;3.60;;;11.10;99.90;;;;;;5075415;28;20289;-72
2022/06/01 05:02:15;;;;;;;5.40;4.70;;;11.10;99.90;;;;;;5074870;28;20706;-68
2022/06/01 05:04:41;;;;;;;4.33;3.97;;;11.20;99.90;;;;;;5074173;28;20178;-70
2022/06/01 05:07:07;;;;;;;4.80;4.40;;;11.10;99.90;;;;;;5074386;28;20378;-67
2022/06/01 05:09:33;;;;;;;6.40;4.43;;;11.10;99.90;;;;;;5074551;28;20685;-72
2022/06/01 05:11:59;;;;;;;4.50;4.20;;;11.10;99.90;;;;;;5075679;28;20375;-72
2022/06/01 05:14:25;;;;;;;4.57;4.17;;;11.10;99.90;;;;;;5073169;28;20486;-68
2022/06/01 05:16:51;;;;;;;6.10;3.63;;;11.10;99.90;;;;;;5073602;28;20387;-67
2022/06/01 05:19:18;;;;;;;4.33;3.97;;;11.20;99.90;;;;;;5074932;28;20500;-73
2022/06/01 05:21:44;;;;;;;3.83;3.57;;;11.10;99.90;;;;;;5075359;28;20379;-70
2022/06/01 05:24:10;;;;;;;4.13;3.50;;;11.00;99.90;;;;;;5073396;28;20474;-70
2022/06/01 05:26:35;;;;;;;4.00;3.77;;;10.90;99.90;;;;;;5074372;28;20169;-72
2022/06/01 05:29:01;;;;;;;7.77;5.50;;;11.00;99.90;;;;;;5074147;28;20206;-72
2022/06/01 05:31:27;;;;;;;5.20;4.80;;;10.90;99.90;;;;;;5075309;28;20173;-73
2022/06/01 05:33:52;;;;;;;3.63;3.43;;;10.90;99.90;;;;;;5071521;28;20569;-69
2022/06/01 05:36:18;;;;;;;4.33;3.93;;;10.80;99.90;;;;;;5072910;28;20188;-71
2022/06/01 05:38:47;;;;;;;3.73;3.53;;;10.70;99.90;;;;;;5071046;28;20206;-70
2022/06/01 05:41:14;;;;;;;4.47;4.10;;;10.80;99.90;;;;;;5074052;28;20454;-69
2022/06/01 05:43:39;;;;;;;4.57;4.20;;;10.80;99.90;;;;;;5074407;28;20371;-67
2022/06/01 05:46:05;;;;;;;5.23;4.83;;;10.90;99.90;;;;;;5073548;28;20909;-66
2022/06/01 05:48:30;;;;;;;5.53;4.47;;;10.70;99.90;;;;;;5072867;28;20186;-69
2022/06/01 05:50:56;;;;;;;5.00;4.70;;;10.70;99.90;;;;;;5073558;28;20201;-72
2022/06/01 05:53:22;;;;;;;5.23;4.83;;;10.70;99.90;;;;;;5073925;28;20174;-72
2022/06/01 05:55:48;;;;;;;5.67;5.20;;;10.80;99.90;;;;;;5074965;28;20399;-70
2022/06/01 05:58:16;;;;;;;7.13;5.40;;;10.90;99.90;;;;;;5070158;28;20194;-68
2022/06/01 06:00:42;;;;;;;4.80;4.50;;;10.90;99.90;;;;;;5073852;28;20918;-70
2022/06/01 06:03:08;;;;;;;5.07;4.77;;;11.00;99.90;;;;;;5074658;28;20396;-70
2022/06/01 06:08:20;;;;;;;4.57;4.27;;;11.30;99.90;;;;;;5071437;28;20201;-70
2022/06/01 06:10:46;;;;;;;4.07;3.77;;;11.40;99.90;;;;;;5073381;28;20417;-66
2022/06/01 06:13:11;;;;;;;3.90;3.60;;;11.40;99.90;;;;;;5074552;28;20767;-70
2022/06/01 06:15:37;;;;;;;4.10;3.80;;;11.40;99.90;;;;;;5074338;28;20256;-70
2022/06/01 06:18:03;;;;;;;4.10;3.80;;;11.40;99.90;;;;;;5069751;28;20214;-67
2022/06/01 06:20:29;;;;;;;4.13;3.73;;;11.40;99.90;;;;;;5074036;28;20233;-67
2022/06/01 06:22:55;;;;;;;4.47;4.17;;;11.60;99.90;;;;;;5074141;28;20412;-66
2022/06/01 06:25:21;;;;;;;4.77;4.33;;;11.80;99.90;;;;;;5074245;28;20197;-70
2022/06/01 06:27:46;;;;;;;4.30;4.00;;;12.00;99.90;;;;;;5071958;28;20557;-66
2022/06/01 06:30:15;;;;;;;5.00;4.60;;;12.20;99.90;;;;;;5074030;28;20578;-66
2022/06/01 06:32:40;;;;;;;4.33;3.97;;;12.10;99.90;;;;;;5072820;28;20175;-68
2022/06/01 06:35:07;;;;;;;5.03;4.63;;;12.20;99.90;;;;;;5073915;28;20406;-67
2022/06/01 06:37:32;;;;;;;5.30;4.80;;;12.20;99.90;;;;;;5071242;28;20235;-66
2022/06/01 06:39:58;;;;;;;4.37;4.03;;;12.40;99.90;;;;;;5073871;28;20426;-66
2022/06/01 06:42:24;;;;;;;4.80;4.40;;;12.40;99.90;;;;;;5073816;28;20198;-66
2022/06/01 06:44:49;;;;;;;3.77;3.57;;;12.30;99.90;;;;;;5072682;28;20166;-70
2022/06/01 06:47:15;;;;;;;5.17;4.67;;;12.20;99.90;;;;;;5070314;28;20520;-71
2022/06/01 06:49:41;;;;;;;4.30;4.00;;;12.20;99.90;;;;;;5073823;28;20596;-66
2022/06/01 06:52:06;;;;;;;4.20;3.90;;;12.40;99.90;;;;;;5073712;28;20189;-71
2022/06/01 06:54:34;;;;;;;4.57;4.33;;;12.40;99.90;;;;;;5073519;28;20304;-67
2022/06/01 06:57:00;;;;;;;6.70;4.90;;;12.50;99.90;;;;;;5070256;28;20519;-67
2022/06/01 06:59:26;;;;;;;3.97;3.67;;;12.50;99.90;;;;;;5072575;28;20481;-67
2022/06/01 07:01:52;;;;;;;3.63;3.43;;;12.70;99.90;;;;;;5073703;28;20197;-66
2022/06/01 07:04:18;;;;;;;3.70;3.50;;;12.90;99.90;;;;;;5073027;28;20455;-70
2022/06/01 07:06:43;;;;;;;3.70;3.40;;;13.00;99.90;;;;;;5071445;28;20255;-67
2022/06/01 07:09:09;;;;;;;3.80;3.60;;;13.10;99.90;;;;;;5070917;28;20422;-72
2022/06/01 07:11:35;;;;;;;4.70;3.77;;;13.10;99.90;;;;;;5073358;28;20277;-66
2022/06/01 07:14:01;;;;;;;3.50;3.30;;;13.20;99.90;;;;;;5073312;28;20394;-71
2022/06/01 07:16:30;;;;;;;3.70;3.40;;;13.30;99.90;;;;;;5067917;28;20453;-72
2022/06/01 07:18:58;;;;;;;4.00;3.70;;;13.40;99.90;;;;;;5072622;28;20594;-67
2022/06/01 07:21:26;;;;;;;4.00;3.70;;;13.50;99.90;;;;;;5071263;28;20547;-66
2022/06/01 07:23:52;;;;;;;4.50;3.80;;;13.60;99.90;;;;;;5072117;28;20422;-71
2022/06/01 07:26:27;;;;;;;3.80;3.50;;;13.70;99.90;;;;;;5072735;28;20397;-72
2022/06/01 07:28:53;;;;;;;4.10;3.80;;;13.70;99.90;;;;;;5069082;28;20472;-66
2022/06/01 07:31:20;;;;;;;3.87;3.67;;;13.70;99.90;;;;;;5071871;28;20440;-67
2022/06/01 07:33:46;;;;;;;3.93;3.63;;;13.70;99.90;;;;;;5072732;28;20408;-71
2022/06/01 07:36:15;;;;;;;3.77;3.57;;;13.80;99.90;;;;;;5072844;28;20899;-71
2022/06/01 07:44:18;;;;;;;3.30;3.10;;;14.20;99.90;;;;;;5067672;28;20947;-72
2022/06/01 07:46:43;;;;;;;4.73;3.93;;;14.30;99.90;;;;;;5071277;28;20428;-66
2022/06/01 07:49:09;;;;;;;3.90;3.70;;;14.40;99.90;;;;;;5070112;28;20538;-67
2022/06/01 07:51:35;;;;;;;4.43;3.40;;;14.50;99.90;;;;;;5067730;28;20277;-67
2022/06/01 07:54:01;;;;;;;5.03;4.60;;;14.40;99.90;;;;;;5071695;28;20182;-66
2022/06/01 07:56:27;;;;;;;4.20;3.97;;;14.50;99.90;;;;;;5070027;28;20442;-72
2022/06/01 07:58:53;;;;;;;4.10;3.70;;;14.60;99.90;;;;;;5066727;28;20481;-71
2022/06/01 08:01:25;;;;;;;4.27;3.97;;;14.80;99.90;;;;;;5069971;28;20432;-71
2022/06/01 09:51:39;;;;;;;3.57;3.33;;;14.20;99.90;;;;;;5074394;28;20416;-66
2022/06/01 09:54:09;;;;;;;2.93;2.73;;;14.30;99.90;;;;;;5074538;28;20364;-72
2022/06/01 09:56:41;;;;;;;4.23;3.40;;;14.40;99.90;;;;;;5073372;28;20435;-72
2022/06/01 10:08:18;;;;;;;2.93;2.73;;;14.60;99.90;;;;;;5072439;28;20426;-72
2022/06/01 10:11:04;;;;;;;4.33;2.60;;;14.70;99.90;;;;;;5074105;28;20883;-66
2022/06/01 10:13:36;;;;;;;3.80;3.43;;;14.80;99.90;;;;;;5074028;28;20908;-73
2022/06/01 10:16:35;;;;;;;3.23;3.03;;;15.00;99.90;;;;;;5072853;28;20439;-65
2022/06/01 10:19:03;;;;;;;3.73;3.43;;;15.20;99.90;;;;;;5074115;28;20948;-74
2022/06/01 10:21:46;;;;;;;3.33;3.13;;;15.20;99.90;;;;;;5073906;28;20416;-72
2022/06/01 10:24:20;;;;;;;3.40;3.20;;;15.30;99.90;;;;;;5074265;28;20476;-73
2022/06/01 10:26:55;;;;;;;5.30;3.70;;;15.20;99.90;;;;;;5071758;28;20428;-72
2022/06/01 10:29:37;;;;;;;2.90;2.70;;;15.20;99.90;;;;;;5072884;28;20447;-65
2022/06/01 10:32:11;;;;;;;4.23;3.83;;;15.20;99.90;;;;;;5053606;28;20463;-66
2022/06/01 10:34:51;;;;;;;5.07;3.80;;;15.30;99.90;;;;;;5054636;28;20962;-71
2022/06/01 10:37:17;;;;;;;4.23;3.83;;;15.30;99.90;;;;;;5053239;28;20935;-71
2022/06/01 10:39:50;;;;;;;4.07;3.77;;;15.50;99.90;;;;;;5053817;28;20452;-71
2022/06/01 10:45:22;;;;;;;3.37;3.00;;;16.20;99.90;;;;;;5072131;28;20435;-72
2022/06/01 10:48:17;;;;;;;5.07;2.80;;;16.70;99.90;;;;;;5072906;28;20491;-66
2022/06/01 10:51:06;;;;;;;3.00;2.80;;;17.50;99.90;;;;;;5072818;28;20431;-71
2022/06/01 10:54:05;;;;;;;5.23;3.20;;;17.80;99.90;;;;;;5073805;28;20911;-65
2022/06/01 10:56:31;;;;;;;2.13;2.03;;;18.10;99.90;;;;;;5071524;28;20471;-72
2022/06/01 10:59:02;;;;;;;2.37;2.20;;;18.40;99.90;;;;;;5073401;28;20444;-66
2022/06/01 11:01:43;;;;;;;2.97;2.77;;;18.70;99.90;;;;;;5073226;28;20408;-66
2022/06/01 11:04:25;;;;;;;1.70;1.60;;;18.80;99.90;;;;;;5073814;28;20388;-66
2022/06/01 11:07:12;;;;;;;2.73;2.53;;;19.00;99.90;;;;;;5070605;28;20826;-67
2022/06/01 11:09:54;;;;;;;2.40;2.20;;;18.90;99.90;;;;;;5072159;28;20512;-66
2022/06/01 11:12:46;;;;;;;2.40;2.30;;;18.50;99.90;;;;;;5073301;28;20423;-74
2022/06/01 11:15:13;;;;;;;2.30;2.10;;;18.10;99.90;;;;;;5072217;28;20428;-66
2022/06/01 11:17:48;;;;;;;2.07;1.93;;;18.40;99.90;;;;;;5072100;28;20495;-73
2022/06/01 11:20:35;;;;;;;2.00;1.90;;;19.10;99.90;;;;;;5073254;28;20562;-66
2022/06/01 11:23:19;;;;;;;1.90;1.80;;;19.40;99.90;;;;;;5072997;28;20768;-74
2022/06/01 11:26:09;;;;;;;1.70;1.60;;;19.50;99.90;;;;;;5071707;28;20416;-74
2022/06/01 11:28:55;;;;;;;4.47;2.50;;;19.80;99.90;;;;;;5072252;28;20432;-67
2022/06/01 11:31:26;;;;;;;3.40;2.23;;;19.80;99.90;;;;;;5073252;28;20412;-67
2022/06/01 11:34:09;;;;;;;2.87;2.43;;;19.50;99.90;;;;;;5073010;28;20417;-66
2022/06/01 11:36:47;;;;;;;2.20;2.00;;;19.00;99.90;;;;;;5071239;28;20472;-74
2022/06/01 11:39:24;;;;;;;2.27;2.17;;;18.30;99.90;;;;;;5072726;28;20493;-74
2022/06/01 11:42:21;;;;;;;2.37;2.17;;;17.20;99.90;;;;;;5073262;28;20396;-73
2022/06/01 11:45:08;;;;;;;2.30;2.10;;;16.40;99.90;;;;;;5052246;28;20421;-66
2022/06/01 11:47:41;;;;;;;2.70;2.50;;;15.20;99.90;;;;;;5071898;28;20739;-66
2022/06/01 11:50:18;;;;;;;2.33;2.13;;;14.60;99.90;;;;;;5073256;28;20394;-68
2022/06/01 11:53:01;;;;;;;4.80;2.80;;;14.00;99.90;;;;;;5072838;28;20408;-67
2022/06/01 11:55:45;;;;;;;4.10;2.50;;;13.60;99.90;;;;;;5070505;28;20432;-70
2022/06/01 11:58:28;;;;;;;2.73;2.53;;;13.10;99.90;;;;;;5075509;28;20472;-70
2022/06/01 12:01:11;;;;;;;2.67;2.47;;;12.60;99.90;;;;;;5076475;28;20453;-71
2022/06/01 12:03:51;;;;;;;2.90;2.53;;;12.10;99.90;;;;;;5076643;28;20456;-70
2022/06/01 12:06:43;;;;;;;4.37;2.73;;;11.80;99.90;;;;;;5075349;28;20427;-74
2022/06/01 12:09:38;;;;;;;4.57;2.27;;;11.60;99.90;;;;;;5076567;28;20399;-71
2022/06/01 12:12:05;;;;;;;2.90;2.70;;;11.60;99.90;;;;;;5066752;28;20422;-69
2022/06/01 12:14:36;;;;;;;3.17;2.97;;;11.60;99.90;;;;;;5076429;28;20448;-68
2022/06/01 12:17:27;;;;;;;3.43;3.23;;;11.70;99.90;;;;;;5064357;28;20432;-71
2022/06/01 12:20:39;;;;;;;4.07;3.83;;;11.90;99.90;;;;;;5072114;28;20446;-71
2022/06/01 12:29:32;;;;;;;4.27;3.87;;;13.60;1.00;;;;;;5075172;28;20978;-71
2022/06/01 12:31:57;;;;;;;4.30;3.90;;;13.80;1.00;;;;;;5076426;28;20427;-71
2022/06/01 12:34:30;;;;;;;3.43;3.13;;;14.10;1.00;;;;;;5074837;28;20416;-67
2022/06/01 12:37:05;;;;;;;3.63;3.43;;;14.30;1.00;;;;;;5075319;28;20249;-70
2022/06/01 12:39:40;;;;;;;3.40;3.03;;;14.30;99.90;;;;;;5074323;28;20447;-69
2022/06/01 12:42:21;;;;;;;3.30;3.10;;;14.40;99.90;;;;;;5075776;28;20389;-70
2022/06/01 12:44:51;;;;;;;3.33;3.13;;;14.60;99.90;;;;;;5056135;28;20407;-71
2022/06/01 12:47:32;;;;;;;5.60;3.20;;;14.50;99.90;;;;;;5059045;28;20466;-70
2022/06/01 12:50:13;;;;;;;3.27;2.97;;;14.40;99.90;;;;;;5070167;28;20435;-70
2022/06/01 12:52:39;;;;;;;3.50;3.20;;;14.20;99.90;;;;;;5074122;28;20412;-70
2022/06/01 12:55:08;;;;;;;3.70;3.40;;;13.90;99.90;;;;;;5075555;28;20904;-70
2022/06/01 12:57:46;;;;;;;3.23;3.03;;;14.00;1.00;;;;;;5073070;28;20430;-66
2022/06/01 13:00:24;;;;;;;3.27;2.93;;;13.90;1.00;;;;;;5075740;28;20481;-66
2022/06/01 13:02:50;;;;;;;3.70;3.40;;;13.80;1.00;;;;;;5069014;28;20788;-66
2022/06/01 13:05:25;;;;;;;3.30;3.10;;;13.40;99.90;;;;;;5055844;28;20392;-71
2022/06/01 13:07:57;;;;;;;2.83;2.63;;;13.40;1.00;;;;;;5066921;28;20427;-66
2022/06/01 13:10:25;;;;;;;3.30;2.80;;;13.30;1.00;;;;;;5074360;28;20400;-65
2022/06/01 13:13:04;;;;;;;3.07;2.87;;;13.50;1.00;;;;;;5075053;28;20395;-70
2022/06/01 13:15:29;;;;;;;3.30;2.67;;;13.90;1.00;;;;;;5074260;28;20460;-70
2022/06/01 13:18:00;;;;;;;2.57;2.37;;;14.50;1.00;;;;;;5074210;28;20983;-66
2022/06/01 13:20:42;;;;;;;2.60;2.50;;;14.70;1.00;;;;;;5074171;28;20601;-71
2022/06/01 13:23:27;;;;;;;3.00;2.70;;;14.70;99.90;;;;;;5073355;28;20451;-66
2022/06/01 13:25:54;;;;;;;2.83;2.50;;;14.60;99.90;;;;;;5072948;28;20404;-71
2022/06/01 13:28:20;;;;;;;2.60;2.40;;;14.50;99.90;;;;;;5054417;28;20426;-67
2022/06/01 13:30:48;;;;;;;2.30;2.20;;;14.60;99.90;;;;;;5055410;28;20758;-72
2022/06/01 13:33:29;;;;;;;2.73;2.63;;;14.70;99.90;;;;;;5072775;28;20436;-71
2022/06/01 13:36:01;;;;;;;2.37;2.17;;;14.70;99.90;;;;;;5074129;28;20434;-66
2022/06/01 13:38:41;;;;;;;3.00;2.60;;;14.70;99.90;;;;;;5072243;28;20460;-71
2022/06/01 13:41:18;;;;;;;2.93;2.50;;;14.90;99.90;;;;;;5074851;28;20387;-71
2022/06/01 13:43:47;;;;;;;4.47;2.70;;;14.80;99.90;;;;;;5073911;28;20424;-74
2022/06/01 13:46:30;;;;;;;2.33;2.23;;;14.50;99.90;;;;;;5073891;28;20437;-71
2022/06/01 13:48:56;;;;;;;2.87;2.67;;;14.40;99.90;;;;;;5058101;28;20441;-65
2022/06/01 13:51:26;;;;;;;3.57;2.73;;;14.80;99.90;;;;;;5054998;28;20451;-71
2022/06/01 13:53:51;;;;;;;5.00;2.90;;;15.00;99.90;;;;;;5054854;28;20155;-71
2022/06/01 13:56:41;;;;;;;2.30;2.10;;;15.50;99.90;;;;;;5055350;28;20413;-81
2022/06/01 13:59:26;;;;;;;1.63;1.50;;;16.20;99.90;;;;;;5072460;28;20263;-81
2022/06/01 14:01:58;;;;;;;2.00;1.90;;;16.40;99.90;;;;;;5074389;28;20412;-78
2022/06/01 14:04:33;;;;;;;2.20;2.10;;;16.60;99.90;;;;;;5071968;28;20424;-82
2022/06/01 14:07:07;;;;;;;2.00;1.80;;;16.60;99.90;;;;;;5073072;28;20827;-70
2022/06/01 14:09:44;;;;;;;1.60;1.50;;;16.80;99.90;;;;;;5074013;28;20444;-65
2022/06/01 14:12:11;;;;;;;1.90;1.80;;;16.70;99.90;;;;;;5070661;28;20831;-66
2022/06/01 14:14:40;;;;;;;1.50;1.40;;;16.50;99.90;;;;;;5073614;28;20416;-66
2022/06/01 14:17:10;;;;;;;1.73;1.53;;;16.40;99.90;;;;;;5072229;28;20428;-68
2022/06/01 14:19:37;;;;;;;2.00;1.90;;;16.30;99.90;;;;;;5072026;28;20499;-68
2022/06/01 14:22:04;;;;;;;2.03;1.93;;;16.10;99.90;;;;;;5072534;28;20420;-68
2022/06/01 14:29:58;;;;;;;1.63;1.53;;;16.30;99.90;;;;;;5074316;28;20395;-73
2022/06/01 14:32:24;;;;;;;2.27;2.17;;;16.30;99.90;;;;;;5072280;28;20437;-73
2022/06/01 14:34:50;;;;;;;1.83;1.73;;;16.30;99.90;;;;;;5074042;28;20170;-72
2022/06/01 14:37:16;;;;;;;2.40;2.30;;;16.30;99.90;;;;;;5054636;28;20425;-67
2022/06/01 14:39:42;;;;;;;2.40;2.30;;;16.40;99.90;;;;;;5053800;28;20449;-73
2022/06/01 14:42:07;;;;;;;2.30;2.10;;;16.40;99.90;;;;;;5070416;28;20527;-67
2022/06/01 14:44:33;;;;;;;2.60;2.40;;;16.50;99.90;;;;;;5070312;28;20269;-73
2022/06/01 14:46:59;;;;;;;3.03;2.80;;;16.60;99.90;;;;;;5072054;28;20174;-67
2022/06/01 14:49:24;;;;;;;2.77;2.57;;;16.50;99.90;;;;;;5071408;28;20738;-67
2022/06/01 14:51:54;;;;;;;3.73;3.23;;;16.60;99.90;;;;;;5071634;28;20269;-73
2022/06/01 14:54:21;;;;;;;3.40;2.60;;;16.70;99.90;;;;;;5073247;28;20531;-73
2022/06/01 14:56:47;;;;;;;2.87;2.67;;;17.00;99.90;;;;;;5070174;28;20494;-72
2022/06/01 14:59:12;;;;;;;2.87;2.73;;;17.10;99.90;;;;;;5071627;28;20878;-73
2022/06/01 15:01:46;;;;;;;2.90;2.70;;;16.90;99.90;;;;;;5060026;28;20186;-73
2022/06/01 15:04:16;;;;;;;2.40;2.20;;;16.90;99.90;;;;;;5068155;28;20633;-74
2022/06/01 15:06:43;;;;;;;2.67;2.47;;;16.70;99.90;;;;;;5069943;28;20416;-73
2022/06/01 15:09:10;;;;;;;2.50;2.40;;;16.60;99.90;;;;;;5073045;28;20428;-67
2022/06/01 15:11:37;;;;;;;3.23;2.60;;;16.40;99.90;;;;;;5060838;28;20772;-68
2022/06/01 15:14:03;;;;;;;2.50;2.40;;;16.10;99.90;;;;;;5052163;28;20413;-72
2022/06/01 15:16:29;;;;;;;2.70;2.40;;;16.10;99.90;;;;;;5060635;28;20837;-73
2022/06/01 15:18:58;;;;;;;3.43;3.23;;;16.10;99.90;;;;;;5072478;28;20458;-73
2022/06/01 15:21:25;;;;;;;3.43;3.23;;;15.90;99.90;;;;;;5071738;28;20428;-66
2022/06/01 15:23:51;;;;;;;2.80;2.60;;;15.70;99.90;;;;;;5072762;28;20421;-67
2022/06/01 15:26:18;;;;;;;3.30;3.10;;;15.70;99.90;;;;;;5072362;28;20413;-73
2022/06/01 15:28:44;;;;;;;3.67;3.40;;;15.70;99.90;;;;;;5069905;28;20527;-75
2022/06/01 15:39:32;;;;;;;2.90;2.70;;;15.00;99.90;;;;;;5073075;28;20470;-68
2022/06/01 15:42:01;;;;;;;5.30;3.30;;;14.90;99.90;;;;;;5072034;28;20416;-67
2022/06/01 15:44:27;;;;;;;4.10;3.80;;;15.00;99.90;;;;;;5071569;28;20486;-75